createdAt,value
2022-11-23T00:01:49.664Z,10.10
2022-11-23T00:04:22.192Z,10.10
2022-11-23T00:06:54.185Z,10.20
2022-11-23T00:09:26.112Z,10.10
2022-11-23T00:11:58.025Z,10.10
2022-11-23T00:14:29.979Z,10.20
2022-11-23T00:17:01.876Z,10.10
2022-11-23T00:19:34.019Z,10.20
2022-11-23T00:22:06.115Z,10.10
2022-11-23T00:24:38.043Z,10.10
2022-11-23T00:27:09.975Z,10.10
2022-11-23T00:29:41.950Z,10.10
2022-11-23T00:32:14.021Z,10.10
2022-11-23T00:34:45.927Z,10.20
2022-11-23T00:37:17.859Z,10.20
2022-11-23T00:39:49.757Z,10.20
2022-11-23T00:42:21.668Z,10.20
2022-11-23T00:44:53.547Z,10.20
2022-11-23T00:47:25.441Z,10.20
2022-11-23T00:49:57.405Z,10.20
2022-11-23T00:52:29.273Z,10.20
2022-11-23T00:55:01.239Z,10.20
2022-11-23T00:57:34.277Z,10.20
2022-11-23T01:00:08.042Z,10.20
2022-11-23T01:02:39.930Z,10.20
2022-11-23T01:05:11.889Z,10.20
2022-11-23T01:07:43.824Z,10.20
2022-11-23T01:10:15.902Z,10.20
2022-11-23T01:12:47.804Z,10.30
2022-11-23T01:15:19.729Z,10.20
2022-11-23T01:17:51.888Z,10.20
2022-11-23T01:20:23.817Z,10.20
2022-11-23T01:22:55.758Z,10.30
2022-11-23T01:25:27.688Z,10.20
2022-11-23T01:27:59.707Z,10.20
2022-11-23T01:30:31.922Z,10.30
2022-11-23T01:33:04.955Z,10.30
2022-11-23T01:35:36.931Z,10.20
2022-11-23T01:38:11.473Z,10.30
2022-11-23T01:40:45.807Z,10.30
2022-11-23T01:43:19.212Z,10.30
2022-11-23T01:45:58.861Z,10.30
2022-11-23T01:49:07.508Z,10.30
2022-11-23T01:51:45.532Z,10.30
2022-11-23T01:54:43.567Z,10.30
2022-11-23T01:57:25.506Z,10.30
2022-11-23T01:59:58.441Z,10.30
2022-11-23T02:02:31.890Z,10.30
2022-11-23T02:05:05.743Z,10.30
2022-11-23T02:07:39.910Z,10.40
2022-11-23T02:10:12.061Z,10.40
2022-11-23T02:12:43.974Z,10.30
2022-11-23T02:15:16.016Z,10.40
2022-11-23T02:17:48.293Z,10.40
2022-11-23T02:20:20.556Z,10.40
2022-11-23T02:23:04.647Z,10.30
2022-11-23T02:25:45.621Z,10.40
2022-11-23T02:28:23.671Z,10.30
2022-11-23T02:30:56.393Z,10.40
2022-11-23T02:33:28.613Z,10.40
2022-11-23T02:36:01.725Z,10.40
2022-11-23T02:38:34.196Z,10.40
2022-11-23T02:41:06.169Z,10.40
2022-11-23T02:43:38.499Z,10.40
2022-11-23T02:46:10.696Z,10.30
2022-11-23T02:48:42.880Z,10.30
2022-11-23T02:51:14.918Z,10.30
2022-11-23T02:53:46.863Z,10.30
2022-11-23T02:56:18.784Z,10.30
2022-11-23T02:58:50.754Z,10.30
2022-11-23T03:01:22.753Z,10.30
2022-11-23T03:03:54.750Z,10.30
2022-11-23T03:06:26.702Z,10.30
2022-11-23T03:08:58.651Z,10.30
2022-11-23T03:11:30.581Z,10.30
2022-11-23T03:14:02.766Z,10.30
2022-11-23T03:16:34.777Z,10.30
2022-11-23T03:19:06.757Z,10.20
2022-11-23T03:21:38.636Z,10.30
2022-11-23T03:24:10.569Z,10.30
2022-11-23T03:26:42.486Z,10.30
2022-11-23T03:29:14.515Z,10.30
2022-11-23T03:31:46.421Z,10.30
2022-11-23T03:34:18.467Z,10.30
2022-11-23T03:36:50.494Z,10.30
2022-11-23T03:39:22.423Z,10.30
2022-11-23T03:41:54.558Z,10.30
2022-11-23T03:44:26.476Z,10.30
2022-11-23T03:46:59.395Z,10.30
2022-11-23T03:49:31.537Z,10.30
2022-11-23T03:52:03.711Z,10.30
2022-11-23T03:54:35.635Z,10.30
2022-11-23T03:57:07.533Z,10.30
2022-11-23T03:59:39.478Z,10.30
2022-11-23T04:02:11.468Z,10.30
2022-11-23T04:04:43.444Z,10.30
2022-11-23T04:07:15.610Z,10.40
2022-11-23T04:09:47.522Z,10.40
2022-11-23T04:12:19.823Z,10.40
2022-11-23T04:14:52.136Z,10.40
2022-11-23T04:17:24.056Z,10.40
2022-11-23T04:19:55.936Z,10.40
2022-11-23T04:22:27.941Z,10.40
2022-11-23T04:24:59.844Z,10.40
2022-11-23T04:27:31.731Z,10.40
2022-11-23T04:30:05.421Z,10.40
2022-11-23T04:32:37.402Z,10.40
2022-11-23T04:35:09.488Z,10.40
2022-11-23T04:37:41.437Z,10.40
2022-11-23T04:40:14.459Z,10.40
2022-11-23T04:42:46.316Z,10.40
2022-11-23T04:45:18.237Z,10.40
2022-11-23T04:47:50.099Z,10.40
2022-11-23T04:50:22.094Z,10.40
2022-11-23T04:52:54.007Z,10.30
2022-11-23T04:55:26.464Z,10.30
2022-11-23T04:57:58.439Z,10.30
2022-11-23T05:00:30.591Z,10.30
2022-11-23T05:03:02.610Z,10.30
2022-11-23T05:05:37.735Z,10.30
2022-11-23T05:08:10.547Z,10.20
2022-11-23T05:10:42.477Z,10.20
2022-11-23T05:13:14.903Z,10.20
2022-11-23T05:15:46.808Z,10.20
2022-11-23T05:18:18.858Z,10.20
2022-11-23T05:20:50.827Z,10.10
2022-11-23T05:23:22.717Z,10.10
2022-11-23T05:25:54.607Z,10.10
2022-11-23T05:28:42.242Z,10.10
2022-11-23T05:31:14.487Z,10.10
2022-11-23T05:33:46.622Z,10.10
2022-11-23T05:36:18.562Z,10.00
2022-11-23T05:38:51.601Z,10.00
2022-11-23T05:41:23.583Z,10.00
2022-11-23T05:43:55.474Z,10.00
2022-11-23T05:46:27.405Z,10.00
2022-11-23T05:48:59.313Z,10.00
2022-11-23T05:51:32.233Z,10.00
2022-11-23T05:54:04.407Z,10.10
2022-11-23T05:56:40.192Z,10.00
2022-11-23T05:59:12.665Z,10.00
2022-11-23T06:01:44.606Z,10.00
2022-11-23T06:04:16.475Z,10.00
2022-11-23T06:06:48.409Z,10.00
2022-11-23T06:09:20.950Z,10.10
2022-11-23T06:11:52.967Z,10.00
2022-11-23T06:14:24.919Z,10.00
2022-11-23T06:16:56.863Z,10.10
2022-11-23T06:19:30.710Z,10.10
2022-11-23T06:22:03.054Z,10.00
2022-11-23T06:24:35.259Z,10.00
2022-11-23T06:27:07.774Z,10.10
2022-11-23T06:29:39.700Z,10.00
2022-11-23T06:32:11.629Z,10.10
2022-11-23T06:34:43.637Z,10.00
2022-11-23T06:37:15.808Z,10.00
2022-11-23T06:39:47.736Z,10.00
2022-11-23T06:45:11.733Z,10.00
2022-11-23T06:47:44.023Z,10.00
2022-11-23T06:50:16.274Z,10.00
2022-11-23T06:52:48.207Z,10.00
2022-11-23T06:55:20.069Z,10.00
2022-11-23T06:57:52.311Z,10.00
2022-11-23T07:00:24.408Z,9.90
2022-11-23T07:02:56.781Z,9.90
2022-11-23T07:05:28.656Z,9.90
2022-11-23T07:08:00.606Z,9.90
2022-11-23T07:10:33.117Z,9.90
2022-11-23T07:13:07.137Z,9.90
2022-11-23T07:15:40.702Z,9.90
2022-11-23T07:18:13.102Z,9.80
2022-11-23T07:20:45.515Z,9.80
2022-11-23T07:23:17.899Z,9.80
2022-11-23T07:25:49.834Z,9.80
2022-11-23T07:28:21.755Z,9.80
2022-11-23T07:30:53.668Z,9.80
2022-11-23T07:33:25.586Z,9.80
2022-11-23T07:36:02.815Z,9.80
2022-11-23T07:38:34.695Z,9.80
2022-11-23T07:41:06.929Z,9.80
2022-11-23T07:43:38.875Z,9.80
2022-11-23T07:46:10.930Z,9.80
2022-11-23T07:48:42.806Z,9.80
2022-11-23T07:51:16.199Z,9.70
2022-11-23T07:53:48.189Z,9.70
2022-11-23T07:56:20.195Z,9.70
2022-11-23T07:58:52.255Z,9.70
2022-11-23T08:01:24.449Z,9.70
2022-11-23T08:03:56.733Z,9.70
2022-11-23T08:06:29.464Z,9.70
2022-11-23T08:09:01.467Z,9.80
2022-11-23T08:11:33.445Z,9.80
2022-11-23T08:14:05.490Z,9.80
2022-11-23T08:16:37.420Z,9.80
2022-11-23T08:19:09.526Z,9.70
2022-11-23T08:21:41.492Z,9.80
2022-11-23T08:24:13.653Z,10.00
2022-11-23T08:26:46.127Z,10.20
2022-11-23T08:29:18.109Z,10.50
2022-11-23T08:31:50.860Z,10.70
2022-11-23T08:34:22.837Z,10.90
2022-11-23T08:36:54.759Z,11.10
2022-11-23T08:39:26.747Z,11.20
2022-11-23T08:41:58.638Z,11.40
2022-11-23T08:44:30.933Z,11.40
2022-11-23T08:47:03.169Z,11.50
2022-11-23T08:49:35.119Z,11.50
2022-11-23T08:52:07.026Z,11.60
2022-11-23T08:54:38.945Z,11.50
2022-11-23T08:57:10.866Z,11.30
2022-11-23T08:59:42.783Z,11.00
2022-11-23T09:02:15.452Z,10.90
2022-11-23T09:04:48.138Z,10.70
2022-11-23T09:07:20.046Z,10.60
2022-11-23T09:09:52.046Z,10.50
2022-11-23T09:12:23.936Z,10.40
2022-11-23T09:14:55.920Z,10.40
2022-11-23T09:17:27.909Z,10.40
2022-11-23T09:20:00.016Z,10.40
2022-11-23T09:22:32.194Z,10.40
2022-11-23T09:25:05.521Z,10.40
2022-11-23T09:27:37.524Z,10.60
2022-11-23T09:30:10.566Z,10.90
2022-11-23T09:32:42.813Z,11.20
2022-11-23T09:35:14.794Z,11.60
2022-11-23T09:37:46.736Z,11.90
2022-11-23T09:40:18.789Z,12.30
2022-11-23T09:43:24.707Z,12.70
2022-11-23T09:46:09.944Z,13.00
2022-11-23T09:48:47.546Z,13.30
2022-11-23T09:51:23.559Z,13.40
2022-11-23T09:54:11.804Z,13.40
2022-11-23T09:56:46.608Z,13.40
2022-11-23T09:59:30.425Z,13.60
2022-11-23T10:02:02.755Z,13.80
2022-11-23T10:04:36.001Z,13.90
2022-11-23T10:08:02.926Z,14.00
2022-11-23T10:11:04.209Z,14.20
2022-11-23T10:13:49.108Z,14.40
2022-11-23T10:16:36.589Z,14.50
2022-11-23T10:19:23.652Z,14.70
2022-11-23T10:22:16.831Z,14.80
2022-11-23T10:24:53.126Z,14.90
2022-11-23T10:27:25.732Z,15.20
2022-11-23T10:30:00.045Z,15.40
2022-11-23T10:32:44.722Z,15.60
2022-11-23T10:35:32.234Z,15.80
2022-11-23T10:38:19.077Z,15.80
2022-11-23T10:41:15.552Z,15.60
2022-11-23T10:44:18.911Z,15.50
2022-11-23T10:46:50.847Z,15.50
2022-11-23T10:49:30.124Z,15.80
2022-11-23T10:52:25.381Z,15.90
2022-11-23T10:55:02.934Z,15.80
2022-11-23T10:57:44.311Z,15.90
2022-11-23T11:00:21.516Z,15.20
2022-11-23T11:02:57.441Z,14.80
2022-11-23T11:08:33.934Z,14.60
2022-11-23T11:11:27.245Z,14.60
2022-11-23T11:14:16.714Z,14.70
2022-11-23T11:16:55.248Z,14.70
2022-11-23T11:19:36.227Z,14.50
2022-11-23T11:22:37.923Z,14.30
2022-11-23T11:25:36.026Z,13.90
2022-11-23T11:28:34.151Z,13.50
2022-11-23T11:31:30.193Z,13.10
2022-11-23T11:34:51.661Z,12.90
2022-11-23T11:37:46.772Z,12.70
2022-11-23T11:40:50.632Z,12.70
2022-11-23T11:43:52.646Z,13.00
2022-11-23T11:46:33.429Z,13.00
2022-11-23T11:49:18.304Z,13.40
2022-11-23T11:52:06.197Z,13.80
2022-11-23T11:54:53.608Z,14.10
2022-11-23T11:57:44.998Z,14.30
2022-11-23T12:00:20.783Z,14.60
2022-11-23T12:03:19.512Z,14.60
2022-11-23T12:06:03.142Z,14.80
2022-11-23T12:08:53.622Z,14.90
2022-11-23T12:11:25.559Z,14.90
2022-11-23T12:14:03.958Z,14.70
2022-11-23T12:16:38.946Z,14.60
2022-11-23T12:19:39.342Z,14.60
2022-11-23T12:23:05.690Z,14.70
2022-11-23T12:26:18.501Z,15.00
2022-11-23T12:29:02.805Z,15.00
2022-11-23T12:31:59.813Z,14.80
2022-11-23T12:35:05.692Z,14.60
2022-11-23T12:37:49.533Z,14.30
2022-11-23T12:40:55.795Z,14.20
2022-11-23T12:43:59.875Z,14.20
2022-11-23T12:47:04.259Z,14.20
2022-11-23T12:49:55.194Z,14.00
2022-11-23T12:53:17.954Z,13.90
2022-11-23T12:55:58.888Z,13.70
2022-11-23T12:58:34.795Z,13.70
2022-11-23T13:01:16.560Z,13.60
2022-11-23T13:04:25.334Z,13.40
2022-11-23T13:07:33.853Z,13.30
2022-11-23T13:10:44.056Z,13.20
2022-11-23T13:13:30.921Z,13.10
2022-11-23T13:16:35.829Z,13.00
2022-11-23T13:19:33.682Z,13.00
2022-11-23T13:22:12.636Z,12.90
2022-11-23T13:25:07.939Z,12.90
2022-11-23T13:28:24.787Z,12.80
2022-11-23T13:31:16.876Z,12.80
2022-11-23T13:33:51.947Z,12.80
2022-11-23T13:36:49.460Z,12.80
2022-11-23T13:40:03.603Z,12.80
2022-11-23T13:42:36.080Z,12.80
2022-11-23T13:45:24.967Z,12.70
2022-11-23T13:48:09.076Z,12.70
2022-11-23T13:51:00.672Z,12.70
2022-11-23T13:53:51.715Z,12.70
2022-11-23T13:56:42.908Z,12.60
2022-11-23T13:59:23.924Z,12.60
2022-11-23T14:02:08.119Z,12.50
2022-11-23T14:04:43.836Z,12.40
2022-11-23T14:07:25.354Z,12.30
2022-11-23T14:10:23.208Z,12.20
2022-11-23T14:13:24.076Z,12.20
2022-11-23T14:16:01.855Z,12.10
2022-11-23T14:19:05.433Z,12.00
2022-11-23T14:22:24.464Z,11.90
2022-11-23T14:25:36.619Z,11.80
2022-11-23T14:28:36.677Z,11.70
2022-11-23T14:31:30.896Z,11.60
2022-11-23T14:34:41.328Z,11.60
2022-11-23T14:37:31.537Z,11.50
2022-11-23T14:40:30.870Z,11.50
2022-11-23T14:43:04.384Z,11.50
2022-11-23T14:45:36.585Z,11.40
2022-11-23T14:48:21.765Z,11.40
2022-11-23T14:51:17.337Z,11.40
2022-11-23T14:53:55.279Z,11.40
2022-11-23T14:56:38.612Z,11.30
2022-11-23T14:59:32.887Z,11.30
2022-11-23T15:02:35.685Z,11.30
2022-11-23T15:05:30.988Z,11.20
2022-11-23T15:08:29.892Z,11.20
2022-11-23T15:11:15.256Z,11.20
2022-11-23T15:13:55.271Z,11.20
2022-11-23T15:16:27.276Z,11.20
2022-11-23T15:18:59.259Z,11.20
2022-11-23T15:21:31.563Z,11.10
2022-11-23T15:24:04.323Z,11.10
2022-11-23T15:26:52.684Z,11.10
2022-11-23T15:29:39.149Z,11.10
2022-11-23T15:32:33.313Z,11.10
2022-11-23T15:35:13.528Z,11.10
2022-11-23T15:37:50.154Z,11.10
2022-11-23T15:40:25.984Z,11.00
2022-11-23T15:42:58.269Z,11.00
2022-11-23T15:45:53.115Z,11.00
2022-11-23T15:48:35.659Z,11.00
2022-11-23T15:51:19.677Z,11.00
2022-11-23T15:53:53.412Z,11.00
2022-11-23T15:56:30.086Z,11.00
2022-11-23T15:59:19.920Z,11.00
2022-11-23T16:01:52.719Z,11.00
2022-11-23T16:04:45.842Z,10.90
2022-11-23T16:07:25.643Z,10.80
2022-11-23T16:10:06.755Z,10.80
2022-11-23T16:12:53.291Z,10.80
2022-11-23T16:15:44.458Z,10.80
2022-11-23T16:18:25.692Z,10.70
2022-11-23T16:21:05.150Z,10.70
2022-11-23T16:23:56.888Z,10.70
2022-11-23T16:26:34.027Z,10.70
2022-11-23T16:29:06.016Z,10.70
2022-11-23T16:31:40.842Z,10.70
2022-11-23T16:34:18.281Z,10.60
2022-11-23T16:36:50.727Z,10.60
2022-11-23T16:39:24.543Z,10.70
2022-11-23T16:41:56.471Z,10.70
2022-11-23T16:44:31.172Z,10.60
2022-11-23T16:47:34.335Z,10.60
2022-11-23T16:50:10.030Z,10.60
2022-11-23T16:52:44.265Z,10.60
2022-11-23T16:55:17.003Z,10.60
2022-11-23T16:57:49.675Z,10.60
2022-11-23T17:00:23.241Z,10.60
2022-11-23T17:02:55.228Z,10.60
2022-11-23T17:05:27.226Z,10.60
2022-11-23T17:07:59.210Z,10.60
2022-11-23T17:10:31.499Z,10.60
2022-11-23T17:13:04.428Z,10.60
2022-11-23T17:15:36.493Z,10.60
2022-11-23T17:18:15.093Z,10.60
2022-11-23T17:20:47.136Z,10.60
2022-11-23T17:23:19.137Z,10.60
2022-11-23T17:25:51.109Z,10.60
2022-11-23T17:28:23.066Z,10.60
2022-11-23T17:30:55.189Z,10.60
2022-11-23T17:33:27.291Z,10.60
2022-11-23T17:36:00.041Z,10.60
2022-11-23T17:38:32.012Z,10.60
2022-11-23T17:41:04.254Z,10.60
2022-11-23T17:43:36.330Z,10.60
2022-11-23T17:46:19.158Z,10.60
2022-11-23T17:49:02.489Z,10.60
2022-11-23T17:51:34.531Z,10.60
2022-11-23T17:54:06.906Z,10.60
2022-11-23T17:56:39.129Z,10.60
2022-11-23T17:59:11.105Z,10.50
2022-11-23T18:01:43.104Z,10.50
2022-11-23T18:04:15.060Z,10.50
2022-11-23T18:06:46.948Z,10.50
2022-11-23T18:09:18.861Z,10.40
2022-11-23T18:11:50.773Z,10.40
2022-11-23T18:14:24.230Z,10.40
2022-11-23T18:16:56.816Z,10.40
2022-11-23T18:19:28.777Z,10.40
2022-11-23T18:22:00.747Z,10.40
2022-11-23T18:24:32.667Z,10.40
2022-11-23T18:27:04.572Z,10.30
2022-11-23T18:29:37.767Z,10.30
2022-11-23T18:32:10.746Z,10.30
2022-11-23T18:34:42.690Z,10.30
2022-11-23T18:37:14.728Z,10.30
2022-11-23T18:39:46.721Z,10.30
2022-11-23T18:42:18.879Z,10.20
2022-11-23T18:44:50.768Z,10.20
2022-11-23T18:47:22.777Z,10.20
2022-11-23T18:49:54.745Z,10.20
2022-11-23T18:52:26.681Z,10.20
2022-11-23T18:54:59.809Z,10.10
2022-11-23T18:57:31.709Z,10.10
2022-11-23T19:00:06.044Z,10.10
2022-11-23T19:02:38.609Z,10.10
2022-11-23T19:05:10.519Z,10.00
2022-11-23T19:07:42.491Z,10.00
2022-11-23T19:10:14.976Z,10.00
2022-11-23T19:12:46.954Z,10.00
2022-11-23T19:15:19.092Z,10.00
2022-11-23T19:17:51.047Z,10.00
2022-11-23T19:20:23.748Z,10.00
2022-11-23T19:22:56.308Z,10.00
2022-11-23T19:25:29.704Z,10.00
2022-11-23T19:28:01.652Z,10.00
2022-11-23T19:30:33.570Z,10.00
2022-11-23T19:33:05.507Z,10.00
2022-11-23T19:35:37.467Z,10.00
2022-11-23T19:38:11.243Z,10.00
2022-11-23T19:40:43.387Z,10.00
2022-11-23T19:43:15.351Z,10.00
2022-11-23T19:45:57.530Z,10.00
2022-11-23T19:48:32.264Z,10.00
2022-11-23T19:51:08.308Z,10.00
2022-11-23T19:53:41.999Z,10.00
2022-11-23T19:56:17.538Z,10.00
2022-11-23T19:58:54.907Z,10.00
2022-11-23T20:01:32.511Z,10.00
2022-11-23T20:04:09.167Z,10.00
2022-11-23T20:06:42.671Z,10.00
2022-11-23T20:09:19.453Z,10.00
2022-11-23T20:11:52.006Z,10.00
2022-11-23T20:14:24.106Z,10.00
2022-11-23T20:16:56.248Z,10.00
2022-11-23T20:19:28.606Z,10.10
2022-11-23T20:22:00.558Z,10.00
2022-11-23T20:24:32.555Z,10.00
2022-11-23T20:27:04.469Z,10.00
2022-11-23T20:29:36.439Z,10.00
2022-11-23T20:32:08.393Z,10.00
2022-11-23T20:34:40.352Z,10.00
2022-11-23T20:37:12.259Z,10.00
2022-11-23T20:39:44.196Z,10.00
2022-11-23T20:42:16.079Z,9.90
2022-11-23T20:44:48.261Z,9.90
2022-11-23T20:47:20.231Z,9.90
2022-11-23T20:49:52.145Z,9.90
2022-11-23T20:52:24.075Z,9.90
2022-11-23T20:54:55.962Z,10.00
2022-11-23T20:57:28.044Z,9.90
2022-11-23T21:00:00.107Z,9.90
2022-11-23T21:02:32.056Z,9.90
2022-11-23T21:05:04.419Z,9.90
2022-11-23T21:07:36.525Z,9.90
2022-11-23T21:10:09.056Z,9.90
2022-11-23T21:12:59.520Z,9.90
2022-11-23T21:15:31.374Z,9.90
2022-11-23T21:18:03.431Z,9.90
2022-11-23T21:20:36.784Z,9.90
2022-11-23T21:23:08.813Z,9.90
2022-11-23T21:25:40.699Z,9.90
2022-11-23T21:28:12.585Z,10.00
2022-11-23T21:30:44.740Z,9.90
2022-11-23T21:33:16.676Z,10.00
2022-11-23T21:35:48.661Z,10.00
2022-11-23T21:38:23.412Z,10.00
2022-11-23T21:40:58.202Z,10.00
2022-11-23T21:43:31.342Z,10.00
2022-11-23T21:46:12.227Z,10.00
2022-11-23T21:48:44.542Z,10.00
2022-11-23T21:51:16.816Z,10.00
2022-11-23T21:53:49.127Z,10.00
2022-11-23T21:56:21.503Z,10.00
2022-11-23T21:58:53.888Z,10.00
2022-11-23T22:01:34.675Z,10.00
2022-11-23T22:04:11.450Z,10.00
2022-11-23T22:06:45.206Z,10.10
2022-11-23T22:09:17.589Z,10.10
2022-11-23T22:11:49.491Z,10.10
2022-11-23T22:14:22.083Z,10.10
2022-11-23T22:16:55.606Z,10.10
2022-11-23T22:19:27.611Z,10.10
2022-11-23T22:22:00.710Z,10.10
2022-11-23T22:24:32.841Z,10.10
2022-11-23T22:27:04.933Z,10.10
2022-11-23T22:29:36.857Z,10.10
2022-11-23T22:32:08.809Z,10.10
2022-11-23T22:34:40.859Z,10.10
2022-11-23T22:37:12.880Z,10.10
2022-11-23T22:39:44.742Z,10.10
2022-11-23T22:42:17.418Z,10.10
2022-11-23T22:44:50.274Z,10.10
2022-11-23T22:47:22.232Z,10.10
2022-11-23T22:49:54.104Z,10.10
2022-11-23T22:52:25.982Z,10.10
2022-11-23T22:54:57.877Z,10.20
2022-11-23T22:57:29.733Z,10.10
2022-11-23T23:00:01.641Z,10.10
2022-11-23T23:02:33.642Z,10.10
2022-11-23T23:05:06.000Z,10.10
2022-11-23T23:07:37.963Z,10.10
2022-11-23T23:10:10.545Z,10.20
2022-11-23T23:12:42.465Z,10.10
2022-11-23T23:15:14.469Z,10.10
2022-11-23T23:17:46.515Z,10.10
2022-11-23T23:20:18.528Z,10.10
2022-11-23T23:22:50.517Z,10.10
2022-11-23T23:25:22.389Z,10.10
2022-11-23T23:27:54.285Z,10.10
2022-11-23T23:30:26.395Z,10.10
2022-11-23T23:33:00.047Z,10.10
2022-11-23T23:35:31.941Z,10.10
2022-11-23T23:38:04.542Z,10.10
2022-11-23T23:40:36.387Z,10.10
2022-11-23T23:43:08.298Z,10.10
2022-11-23T23:45:40.257Z,10.10
2022-11-23T23:48:12.180Z,10.10
2022-11-23T23:50:44.208Z,10.10
2022-11-23T23:53:16.051Z,10.10
2022-11-23T23:55:59.452Z,10.10
2022-11-23T23:58:32.097Z,10.10
